sensor_id;sensor_type;location;lat;lon;timestamp;temperature;humidity
20380;DHT22;10349;48.666;8.948;2023-05-19T00:01:08;10.30;99.90
20380;DHT22;10349;48.666;8.948;2023-05-19T00:03:35;10.30;99.90
20380;DHT22;10349;48.666;8.948;2023-05-19T00:06:06;10.40;99.90
20380;DHT22;10349;48.666;8.948;2023-05-19T00:08:37;10.40;99.90
20380;DHT22;10349;48.666;8.948;2023-05-19T00:11:03;10.30;99.90
20380;DHT22;10349;48.666;8.948;2023-05-19T00:13:29;10.30;99.90
20380;DHT22;10349;48.666;8.948;2023-05-19T00:15:55;10.20;99.90
20380;DHT22;10349;48.666;8.948;2023-05-19T00:18:21;10.10;99.90
20380;DHT22;10349;48.666;8.948;2023-05-19T00:20:47;10.10;99.90
20380;DHT22;10349;48.666;8.948;2023-05-19T00:23:13;10.00;99.90
20380;DHT22;10349;48.666;8.948;2023-05-19T00:25:39;10.00;99.90
20380;DHT22;10349;48.666;8.948;2023-05-19T00:28:04;10.10;99.90
20380;DHT22;10349;48.666;8.948;2023-05-19T00:30:30;10.00;99.90
20380;DHT22;10349;48.666;8.948;2023-05-19T00:32:56;10.00;99.90
20380;DHT22;10349;48.666;8.948;2023-05-19T00:35:22;10.00;99.90
20380;DHT22;10349;48.666;8.948;2023-05-19T00:37:48;9.90;99.90
20380;DHT22;10349;48.666;8.948;2023-05-19T00:40:14;9.90;99.90
20380;DHT22;10349;48.666;8.948;2023-05-19T00:42:40;9.90;99.90
20380;DHT22;10349;48.666;8.948;2023-05-19T00:45:07;9.80;99.90
20380;DHT22;10349;48.666;8.948;2023-05-19T00:47:33;9.70;99.90
20380;DHT22;10349;48.666;8.948;2023-05-19T00:49:59;9.70;99.90
20380;DHT22;10349;48.666;8.948;2023-05-19T00:52:25;9.70;99.90
20380;DHT22;10349;48.666;8.948;2023-05-19T00:54:52;9.60;99.90
20380;DHT22;10349;48.666;8.948;2023-05-19T00:57:18;9.60;99.90
20380;DHT22;10349;48.666;8.948;2023-05-19T00:59:46;9.60;99.90
20380;DHT22;10349;48.666;8.948;2023-05-19T01:02:12;9.50;99.90
20380;DHT22;10349;48.666;8.948;2023-05-19T01:04:40;9.40;99.90
20380;DHT22;10349;48.666;8.948;2023-05-19T01:07:08;9.40;99.90
20380;DHT22;10349;48.666;8.948;2023-05-19T01:09:35;9.30;99.90
20380;DHT22;10349;48.666;8.948;2023-05-19T01:12:01;9.30;99.90
20380;DHT22;10349;48.666;8.948;2023-05-19T01:14:28;9.30;99.90
20380;DHT22;10349;48.666;8.948;2023-05-19T01:17:13;9.30;99.90
20380;DHT22;10349;48.666;8.948;2023-05-19T01:28:21;9.30;99.90
20380;DHT22;10349;48.666;8.948;2023-05-19T01:30:57;9.30;99.90
20380;DHT22;10349;48.666;8.948;2023-05-19T01:33:25;9.30;99.90
20380;DHT22;10349;48.666;8.948;2023-05-19T01:35:53;9.30;99.90
20380;DHT22;10349;48.666;8.948;2023-05-19T01:38:20;9.20;99.90
20380;DHT22;10349;48.666;8.948;2023-05-19T01:40:47;9.20;99.90
20380;DHT22;10349;48.666;8.948;2023-05-19T01:43:19;9.10;99.90
20380;DHT22;10349;48.666;8.948;2023-05-19T01:45:45;9.10;99.90
20380;DHT22;10349;48.666;8.948;2023-05-19T01:48:12;9.10;99.90
20380;DHT22;10349;48.666;8.948;2023-05-19T01:50:40;9.10;99.90
20380;DHT22;10349;48.666;8.948;2023-05-19T01:53:06;9.10;99.90
20380;DHT22;10349;48.666;8.948;2023-05-19T01:55:35;9.00;99.90
20380;DHT22;10349;48.666;8.948;2023-05-19T02:01:20;9.00;99.90
20380;DHT22;10349;48.666;8.948;2023-05-19T02:07:02;9.00;99.90
20380;DHT22;10349;48.666;8.948;2023-05-19T02:09:41;9.00;99.90
20380;DHT22;10349;48.666;8.948;2023-05-19T02:14:52;8.90;99.90
20380;DHT22;10349;48.666;8.948;2023-05-19T02:17:20;9.00;99.90
20380;DHT22;10349;48.666;8.948;2023-05-19T02:19:48;8.90;99.90
20380;DHT22;10349;48.666;8.948;2023-05-19T02:22:14;8.90;99.90
20380;DHT22;10349;48.666;8.948;2023-05-19T02:24:40;8.90;99.90
20380;DHT22;10349;48.666;8.948;2023-05-19T02:27:05;8.90;99.90
20380;DHT22;10349;48.666;8.948;2023-05-19T02:29:33;8.80;99.90
20380;DHT22;10349;48.666;8.948;2023-05-19T02:32:00;8.90;99.90
20380;DHT22;10349;48.666;8.948;2023-05-19T02:34:26;8.80;99.90
20380;DHT22;10349;48.666;8.948;2023-05-19T02:36:52;8.80;99.90
20380;DHT22;10349;48.666;8.948;2023-05-19T02:39:18;8.80;99.90
20380;DHT22;10349;48.666;8.948;2023-05-19T02:41:45;8.80;99.90
20380;DHT22;10349;48.666;8.948;2023-05-19T02:44:11;8.80;99.90
20380;DHT22;10349;48.666;8.948;2023-05-19T02:46:41;8.70;99.90
20380;DHT22;10349;48.666;8.948;2023-05-19T02:49:06;8.70;99.90
20380;DHT22;10349;48.666;8.948;2023-05-19T02:51:34;8.70;99.90
20380;DHT22;10349;48.666;8.948;2023-05-19T02:54:01;8.60;99.90
20380;DHT22;10349;48.666;8.948;2023-05-19T02:56:26;8.60;99.90
20380;DHT22;10349;48.666;8.948;2023-05-19T02:58:53;8.60;99.90
20380;DHT22;10349;48.666;8.948;2023-05-19T03:01:19;8.70;99.90
20380;DHT22;10349;48.666;8.948;2023-05-19T03:03:46;8.60;99.90
20380;DHT22;10349;48.666;8.948;2023-05-19T03:06:12;8.70;99.90
20380;DHT22;10349;48.666;8.948;2023-05-19T03:08:38;8.70;99.90
20380;DHT22;10349;48.666;8.948;2023-05-19T03:11:04;8.70;99.90
20380;DHT22;10349;48.666;8.948;2023-05-19T03:13:30;8.70;99.90
20380;DHT22;10349;48.666;8.948;2023-05-19T03:15:57;8.70;99.90
20380;DHT22;10349;48.666;8.948;2023-05-19T03:18:27;8.70;99.90
20380;DHT22;10349;48.666;8.948;2023-05-19T03:20:53;8.70;99.90
20380;DHT22;10349;48.666;8.948;2023-05-19T03:23:20;8.70;99.90
20380;DHT22;10349;48.666;8.948;2023-05-19T03:25:47;8.60;99.90
20380;DHT22;10349;48.666;8.948;2023-05-19T03:28:12;8.60;99.90
20380;DHT22;10349;48.666;8.948;2023-05-19T03:30:38;8.60;99.90
20380;DHT22;10349;48.666;8.948;2023-05-19T03:33:10;8.60;99.90
20380;DHT22;10349;48.666;8.948;2023-05-19T03:35:35;8.50;99.90
20380;DHT22;10349;48.666;8.948;2023-05-19T03:38:01;8.50;99.90
20380;DHT22;10349;48.666;8.948;2023-05-19T03:40:28;8.60;99.90
20380;DHT22;10349;48.666;8.948;2023-05-19T03:43:00;8.50;99.90
20380;DHT22;10349;48.666;8.948;2023-05-19T03:45:27;8.60;99.90
20380;DHT22;10349;48.666;8.948;2023-05-19T03:47:52;8.50;99.90
20380;DHT22;10349;48.666;8.948;2023-05-19T03:50:47;8.60;99.90
20380;DHT22;10349;48.666;8.948;2023-05-19T03:53:17;8.60;99.90
20380;DHT22;10349;48.666;8.948;2023-05-19T03:55:43;8.60;99.90
20380;DHT22;10349;48.666;8.948;2023-05-19T03:58:09;8.60;99.90
20380;DHT22;10349;48.666;8.948;2023-05-19T04:00:35;8.70;99.90
20380;DHT22;10349;48.666;8.948;2023-05-19T04:03:01;8.70;99.90
20380;DHT22;10349;48.666;8.948;2023-05-19T04:05:27;8.70;99.90
20380;DHT22;10349;48.666;8.948;2023-05-19T04:07:53;8.70;99.90
20380;DHT22;10349;48.666;8.948;2023-05-19T04:10:19;8.70;99.90
20380;DHT22;10349;48.666;8.948;2023-05-19T04:12:46;8.70;99.90
20380;DHT22;10349;48.666;8.948;2023-05-19T04:15:14;8.70;99.90
20380;DHT22;10349;48.666;8.948;2023-05-19T04:17:40;8.70;99.90
20380;DHT22;10349;48.666;8.948;2023-05-19T04:20:06;8.70;99.90
20380;DHT22;10349;48.666;8.948;2023-05-19T04:22:32;8.60;99.90
20380;DHT22;10349;48.666;8.948;2023-05-19T04:24:57;8.60;99.90
20380;DHT22;10349;48.666;8.948;2023-05-19T04:27:24;8.60;99.90
20380;DHT22;10349;48.666;8.948;2023-05-19T04:29:52;8.60;99.90
20380;DHT22;10349;48.666;8.948;2023-05-19T04:32:19;8.60;99.90
20380;DHT22;10349;48.666;8.948;2023-05-19T04:34:45;8.60;99.90
20380;DHT22;10349;48.666;8.948;2023-05-19T04:37:14;8.60;99.90
20380;DHT22;10349;48.666;8.948;2023-05-19T04:39:44;8.60;99.90
20380;DHT22;10349;48.666;8.948;2023-05-19T04:42:11;8.60;99.90
20380;DHT22;10349;48.666;8.948;2023-05-19T04:44:38;8.60;99.90
20380;DHT22;10349;48.666;8.948;2023-05-19T04:47:07;8.60;99.90
20380;DHT22;10349;48.666;8.948;2023-05-19T04:49:34;8.70;99.90
20380;DHT22;10349;48.666;8.948;2023-05-19T04:52:10;8.70;99.90
20380;DHT22;10349;48.666;8.948;2023-05-19T04:54:37;8.70;99.90
20380;DHT22;10349;48.666;8.948;2023-05-19T04:57:03;8.80;99.90
20380;DHT22;10349;48.666;8.948;2023-05-19T04:59:32;8.90;99.90
20380;DHT22;10349;48.666;8.948;2023-05-19T05:01:58;8.90;99.90
20380;DHT22;10349;48.666;8.948;2023-05-19T05:04:26;8.90;99.90
20380;DHT22;10349;48.666;8.948;2023-05-19T05:06:53;9.00;99.90
20380;DHT22;10349;48.666;8.948;2023-05-19T05:09:19;9.00;99.90
20380;DHT22;10349;48.666;8.948;2023-05-19T05:11:46;9.00;99.90
20380;DHT22;10349;48.666;8.948;2023-05-19T05:14:12;9.10;99.90
20380;DHT22;10349;48.666;8.948;2023-05-19T05:16:38;9.20;99.90
20380;DHT22;10349;48.666;8.948;2023-05-19T05:19:05;9.20;99.90
20380;DHT22;10349;48.666;8.948;2023-05-19T05:21:31;9.30;99.90
20380;DHT22;10349;48.666;8.948;2023-05-19T05:23:58;9.40;99.90
20380;DHT22;10349;48.666;8.948;2023-05-19T05:26:29;9.50;99.90
20380;DHT22;10349;48.666;8.948;2023-05-19T05:28:55;9.60;99.90
20380;DHT22;10349;48.666;8.948;2023-05-19T05:31:21;9.70;99.90
20380;DHT22;10349;48.666;8.948;2023-05-19T05:33:47;9.70;99.90
20380;DHT22;10349;48.666;8.948;2023-05-19T05:36:14;9.70;99.90
20380;DHT22;10349;48.666;8.948;2023-05-19T05:38:40;9.80;99.90
20380;DHT22;10349;48.666;8.948;2023-05-19T05:41:06;9.90;99.90
20380;DHT22;10349;48.666;8.948;2023-05-19T05:43:33;10.00;99.90
20380;DHT22;10349;48.666;8.948;2023-05-19T05:46:02;10.10;99.90
20380;DHT22;10349;48.666;8.948;2023-05-19T05:48:28;10.20;99.90
20380;DHT22;10349;48.666;8.948;2023-05-19T05:50:56;10.20;99.90
20380;DHT22;10349;48.666;8.948;2023-05-19T05:53:29;10.30;99.90
20380;DHT22;10349;48.666;8.948;2023-05-19T05:56:00;10.30;99.90
20380;DHT22;10349;48.666;8.948;2023-05-19T05:58:34;10.30;99.90
20380;DHT22;10349;48.666;8.948;2023-05-19T06:01:03;10.30;99.90
20380;DHT22;10349;48.666;8.948;2023-05-19T06:03:30;10.30;99.90
20380;DHT22;10349;48.666;8.948;2023-05-19T06:06:01;10.30;99.90
20380;DHT22;10349;48.666;8.948;2023-05-19T06:08:27;10.30;99.90
20380;DHT22;10349;48.666;8.948;2023-05-19T06:10:53;10.30;99.90
20380;DHT22;10349;48.666;8.948;2023-05-19T06:13:18;10.50;99.90
20380;DHT22;10349;48.666;8.948;2023-05-19T06:15:49;10.60;99.90
20380;DHT22;10349;48.666;8.948;2023-05-19T06:18:19;10.70;99.90
20380;DHT22;10349;48.666;8.948;2023-05-19T06:20:46;10.70;99.90
20380;DHT22;10349;48.666;8.948;2023-05-19T06:23:12;10.90;99.90
20380;DHT22;10349;48.666;8.948;2023-05-19T06:25:38;11.00;99.90
20380;DHT22;10349;48.666;8.948;2023-05-19T06:28:04;11.10;99.90
20380;DHT22;10349;48.666;8.948;2023-05-19T06:30:31;11.30;99.90
20380;DHT22;10349;48.666;8.948;2023-05-19T06:33:06;11.30;99.90
20380;DHT22;10349;48.666;8.948;2023-05-19T06:35:32;11.40;99.90
20380;DHT22;10349;48.666;8.948;2023-05-19T06:37:58;11.50;99.90
20380;DHT22;10349;48.666;8.948;2023-05-19T06:40:24;11.50;99.90
20380;DHT22;10349;48.666;8.948;2023-05-19T06:42:49;11.50;99.90
20380;DHT22;10349;48.666;8.948;2023-05-19T06:45:22;11.50;99.90
20380;DHT22;10349;48.666;8.948;2023-05-19T06:47:50;11.50;99.90
20380;DHT22;10349;48.666;8.948;2023-05-19T06:50:16;11.60;99.90
20380;DHT22;10349;48.666;8.948;2023-05-19T06:52:42;11.70;99.90
20380;DHT22;10349;48.666;8.948;2023-05-19T06:55:08;11.70;99.90
20380;DHT22;10349;48.666;8.948;2023-05-19T06:57:36;11.80;99.90
20380;DHT22;10349;48.666;8.948;2023-05-19T07:00:03;11.90;99.90
20380;DHT22;10349;48.666;8.948;2023-05-19T07:02:34;11.90;99.90
20380;DHT22;10349;48.666;8.948;2023-05-19T07:05:00;12.00;99.90
20380;DHT22;10349;48.666;8.948;2023-05-19T07:07:26;12.10;99.90
20380;DHT22;10349;48.666;8.948;2023-05-19T07:09:55;12.20;99.90
20380;DHT22;10349;48.666;8.948;2023-05-19T07:12:20;12.20;99.90
20380;DHT22;10349;48.666;8.948;2023-05-19T07:14:46;12.30;99.90
20380;DHT22;10349;48.666;8.948;2023-05-19T07:17:14;12.30;99.90
20380;DHT22;10349;48.666;8.948;2023-05-19T07:19:43;12.30;99.90
20380;DHT22;10349;48.666;8.948;2023-05-19T07:22:08;12.40;99.90
20380;DHT22;10349;48.666;8.948;2023-05-19T07:24:34;12.40;99.90
20380;DHT22;10349;48.666;8.948;2023-05-19T07:27:00;12.40;99.90
20380;DHT22;10349;48.666;8.948;2023-05-19T07:29:26;12.50;99.90
20380;DHT22;10349;48.666;8.948;2023-05-19T07:31:51;12.40;99.90
20380;DHT22;10349;48.666;8.948;2023-05-19T07:34:22;12.40;99.90
20380;DHT22;10349;48.666;8.948;2023-05-19T07:36:48;12.30;99.90
20380;DHT22;10349;48.666;8.948;2023-05-19T07:39:14;12.30;99.90
20380;DHT22;10349;48.666;8.948;2023-05-19T07:41:40;12.40;99.90
20380;DHT22;10349;48.666;8.948;2023-05-19T07:44:05;12.50;99.90
20380;DHT22;10349;48.666;8.948;2023-05-19T07:46:35;12.60;99.90
20380;DHT22;10349;48.666;8.948;2023-05-19T07:49:02;12.40;99.90
20380;DHT22;10349;48.666;8.948;2023-05-19T07:51:28;12.40;99.90
20380;DHT22;10349;48.666;8.948;2023-05-19T07:53:53;12.40;99.90
20380;DHT22;10349;48.666;8.948;2023-05-19T07:56:19;12.40;99.90
20380;DHT22;10349;48.666;8.948;2023-05-19T07:58:46;12.30;99.90
20380;DHT22;10349;48.666;8.948;2023-05-19T08:01:11;12.20;99.90
20380;DHT22;10349;48.666;8.948;2023-05-19T08:03:37;12.30;99.90
20380;DHT22;10349;48.666;8.948;2023-05-19T08:06:03;12.30;99.90
20380;DHT22;10349;48.666;8.948;2023-05-19T08:08:29;12.20;99.90
20380;DHT22;10349;48.666;8.948;2023-05-19T08:10:54;12.20;99.90
20380;DHT22;10349;48.666;8.948;2023-05-19T08:13:20;12.30;99.90
20380;DHT22;10349;48.666;8.948;2023-05-19T08:15:46;12.30;99.90
20380;DHT22;10349;48.666;8.948;2023-05-19T08:18:12;12.40;99.90
20380;DHT22;10349;48.666;8.948;2023-05-19T08:20:38;12.70;99.90
20380;DHT22;10349;48.666;8.948;2023-05-19T08:23:03;12.80;99.90
20380;DHT22;10349;48.666;8.948;2023-05-19T08:25:29;13.00;99.90
20380;DHT22;10349;48.666;8.948;2023-05-19T08:27:55;13.10;99.90
20380;DHT22;10349;48.666;8.948;2023-05-19T08:30:21;13.20;99.90
20380;DHT22;10349;48.666;8.948;2023-05-19T08:32:47;13.20;99.90
20380;DHT22;10349;48.666;8.948;2023-05-19T08:35:13;13.20;99.90
20380;DHT22;10349;48.666;8.948;2023-05-19T08:37:38;13.30;99.90
20380;DHT22;10349;48.666;8.948;2023-05-19T08:40:05;13.10;99.90
20380;DHT22;10349;48.666;8.948;2023-05-19T08:42:31;13.20;99.90
20380;DHT22;10349;48.666;8.948;2023-05-19T08:44:59;13.30;99.90
20380;DHT22;10349;48.666;8.948;2023-05-19T08:47:26;13.30;99.90
20380;DHT22;10349;48.666;8.948;2023-05-19T08:50:03;13.40;99.90
20380;DHT22;10349;48.666;8.948;2023-05-19T08:52:46;13.60;99.90
20380;DHT22;10349;48.666;8.948;2023-05-19T08:55:30;13.80;99.90
20380;DHT22;10349;48.666;8.948;2023-05-19T08:57:59;13.70;99.90
20380;DHT22;10349;48.666;8.948;2023-05-19T09:00:27;13.60;99.90
20380;DHT22;10349;48.666;8.948;2023-05-19T09:02:53;13.40;99.90
20380;DHT22;10349;48.666;8.948;2023-05-19T09:05:19;13.30;99.90
20380;DHT22;10349;48.666;8.948;2023-05-19T09:07:45;13.20;99.90
20380;DHT22;10349;48.666;8.948;2023-05-19T09:10:13;13.20;99.90
20380;DHT22;10349;48.666;8.948;2023-05-19T09:12:44;13.30;99.90
20380;DHT22;10349;48.666;8.948;2023-05-19T09:15:12;13.20;99.90
20380;DHT22;10349;48.666;8.948;2023-05-19T09:17:38;13.20;99.90
20380;DHT22;10349;48.666;8.948;2023-05-19T09:20:05;13.20;99.90
20380;DHT22;10349;48.666;8.948;2023-05-19T09:22:44;13.20;99.90
20380;DHT22;10349;48.666;8.948;2023-05-19T09:25:19;13.30;99.90
20380;DHT22;10349;48.666;8.948;2023-05-19T09:27:48;13.40;99.90
20380;DHT22;10349;48.666;8.948;2023-05-19T09:30:18;13.40;99.90
20380;DHT22;10349;48.666;8.948;2023-05-19T09:32:44;13.40;99.90
20380;DHT22;10349;48.666;8.948;2023-05-19T09:35:12;13.30;99.90
20380;DHT22;10349;48.666;8.948;2023-05-19T09:37:42;13.30;99.90
20380;DHT22;10349;48.666;8.948;2023-05-19T09:40:08;13.30;99.90
20380;DHT22;10349;48.666;8.948;2023-05-19T09:42:39;13.30;99.90
20380;DHT22;10349;48.666;8.948;2023-05-19T09:45:06;13.10;99.90
20380;DHT22;10349;48.666;8.948;2023-05-19T09:47:39;13.10;99.90
20380;DHT22;10349;48.666;8.948;2023-05-19T09:50:08;13.10;99.90
20380;DHT22;10349;48.666;8.948;2023-05-19T09:52:37;13.10;99.90
20380;DHT22;10349;48.666;8.948;2023-05-19T09:55:04;13.10;99.90
20380;DHT22;10349;48.666;8.948;2023-05-19T09:57:35;13.10;99.90
20380;DHT22;10349;48.666;8.948;2023-05-19T10:00:08;13.10;99.90
20380;DHT22;10349;48.666;8.948;2023-05-19T10:02:43;13.00;99.90
20380;DHT22;10349;48.666;8.948;2023-05-19T10:05:14;13.00;99.90
20380;DHT22;10349;48.666;8.948;2023-05-19T10:07:52;13.20;99.90
20380;DHT22;10349;48.666;8.948;2023-05-19T10:10:19;13.10;99.90
20380;DHT22;10349;48.666;8.948;2023-05-19T10:12:46;13.20;99.90
20380;DHT22;10349;48.666;8.948;2023-05-19T10:15:16;13.30;99.90
20380;DHT22;10349;48.666;8.948;2023-05-19T10:17:43;13.30;99.90
20380;DHT22;10349;48.666;8.948;2023-05-19T10:20:14;13.20;99.90
20380;DHT22;10349;48.666;8.948;2023-05-19T10:22:44;13.20;99.90
20380;DHT22;10349;48.666;8.948;2023-05-19T10:25:11;13.10;99.90
20380;DHT22;10349;48.666;8.948;2023-05-19T10:27:58;13.20;99.90
20380;DHT22;10349;48.666;8.948;2023-05-19T10:30:29;13.00;99.90
20380;DHT22;10349;48.666;8.948;2023-05-19T10:32:59;12.90;99.90
20380;DHT22;10349;48.666;8.948;2023-05-19T10:38:41;12.90;99.90
20380;DHT22;10349;48.666;8.948;2023-05-19T10:41:40;12.90;99.90
20380;DHT22;10349;48.666;8.948;2023-05-19T10:44:39;13.00;99.90
20380;DHT22;10349;48.666;8.948;2023-05-19T10:47:06;13.20;99.90
20380;DHT22;10349;48.666;8.948;2023-05-19T10:49:36;13.20;99.90
20380;DHT22;10349;48.666;8.948;2023-05-19T10:52:02;13.20;99.90
20380;DHT22;10349;48.666;8.948;2023-05-19T10:54:41;13.20;99.90
20380;DHT22;10349;48.666;8.948;2023-05-19T10:57:16;13.10;99.90
20380;DHT22;10349;48.666;8.948;2023-05-19T10:59:43;13.20;99.90
20380;DHT22;10349;48.666;8.948;2023-05-19T11:02:41;13.20;99.90
20380;DHT22;10349;48.666;8.948;2023-05-19T11:05:12;13.20;99.90
20380;DHT22;10349;48.666;8.948;2023-05-19T11:07:43;13.20;99.90
20380;DHT22;10349;48.666;8.948;2023-05-19T11:10:10;13.10;99.90
20380;DHT22;10349;48.666;8.948;2023-05-19T11:12:44;13.10;99.90
20380;DHT22;10349;48.666;8.948;2023-05-19T11:15:14;13.00;99.90
20380;DHT22;10349;48.666;8.948;2023-05-19T11:17:40;13.00;99.90
20380;DHT22;10349;48.666;8.948;2023-05-19T11:20:23;13.00;99.90
20380;DHT22;10349;48.666;8.948;2023-05-19T11:25:50;13.00;99.90
20380;DHT22;10349;48.666;8.948;2023-05-19T11:28:22;13.00;99.90
20380;DHT22;10349;48.666;8.948;2023-05-19T11:30:56;13.00;99.90
20380;DHT22;10349;48.666;8.948;2023-05-19T11:33:24;13.00;99.90
20380;DHT22;10349;48.666;8.948;2023-05-19T11:35:56;13.10;99.90
20380;DHT22;10349;48.666;8.948;2023-05-19T11:38:22;13.10;99.90
20380;DHT22;10349;48.666;8.948;2023-05-19T11:40:48;13.20;99.90
20380;DHT22;10349;48.666;8.948;2023-05-19T11:43:17;13.20;99.90
20380;DHT22;10349;48.666;8.948;2023-05-19T11:45:42;13.10;99.90
20380;DHT22;10349;48.666;8.948;2023-05-19T11:48:12;13.20;99.90
20380;DHT22;10349;48.666;8.948;2023-05-19T11:50:40;13.10;99.90
20380;DHT22;10349;48.666;8.948;2023-05-19T11:53:11;13.10;99.90
20380;DHT22;10349;48.666;8.948;2023-05-19T11:55:41;13.10;99.90
20380;DHT22;10349;48.666;8.948;2023-05-19T11:58:07;13.20;99.90
20380;DHT22;10349;48.666;8.948;2023-05-19T12:00:36;13.20;99.90
20380;DHT22;10349;48.666;8.948;2023-05-19T12:03:03;13.20;99.90
20380;DHT22;10349;48.666;8.948;2023-05-19T12:05:29;13.20;99.90
20380;DHT22;10349;48.666;8.948;2023-05-19T12:07:56;13.20;99.90
20380;DHT22;10349;48.666;8.948;2023-05-19T12:10:29;13.20;99.90
20380;DHT22;10349;48.666;8.948;2023-05-19T12:12:55;13.20;99.90
20380;DHT22;10349;48.666;8.948;2023-05-19T12:15:23;13.20;99.90
20380;DHT22;10349;48.666;8.948;2023-05-19T12:17:56;13.10;99.90
20380;DHT22;10349;48.666;8.948;2023-05-19T12:20:24;13.10;99.90
20380;DHT22;10349;48.666;8.948;2023-05-19T12:22:50;13.10;99.90
20380;DHT22;10349;48.666;8.948;2023-05-19T12:25:17;13.10;99.90
20380;DHT22;10349;48.666;8.948;2023-05-19T12:27:43;13.10;99.90
20380;DHT22;10349;48.666;8.948;2023-05-19T12:30:10;13.10;99.90
20380;DHT22;10349;48.666;8.948;2023-05-19T12:32:37;13.00;99.90
20380;DHT22;10349;48.666;8.948;2023-05-19T12:35:04;13.00;99.90
20380;DHT22;10349;48.666;8.948;2023-05-19T12:37:31;13.00;99.90
20380;DHT22;10349;48.666;8.948;2023-05-19T12:39:59;13.00;99.90
20380;DHT22;10349;48.666;8.948;2023-05-19T12:42:26;13.00;99.90
20380;DHT22;10349;48.666;8.948;2023-05-19T12:44:58;13.10;99.90
20380;DHT22;10349;48.666;8.948;2023-05-19T12:47:29;13.10;99.90
20380;DHT22;10349;48.666;8.948;2023-05-19T12:50:05;13.00;99.90
20380;DHT22;10349;48.666;8.948;2023-05-19T12:52:39;13.00;99.90
20380;DHT22;10349;48.666;8.948;2023-05-19T12:55:05;13.00;99.90
20380;DHT22;10349;48.666;8.948;2023-05-19T12:57:42;13.00;99.90
20380;DHT22;10349;48.666;8.948;2023-05-19T13:00:17;13.00;99.90
20380;DHT22;10349;48.666;8.948;2023-05-19T13:03:01;13.00;99.90
20380;DHT22;10349;48.666;8.948;2023-05-19T13:05:37;12.90;99.90
20380;DHT22;10349;48.666;8.948;2023-05-19T13:08:12;12.90;99.90
20380;DHT22;10349;48.666;8.948;2023-05-19T13:10:39;12.80;99.90
20380;DHT22;10349;48.666;8.948;2023-05-19T13:13:06;12.80;99.90
20380;DHT22;10349;48.666;8.948;2023-05-19T13:15:33;12.80;99.90
20380;DHT22;10349;48.666;8.948;2023-05-19T13:18:01;12.80;99.90
20380;DHT22;10349;48.666;8.948;2023-05-19T13:20:28;12.90;99.90
20380;DHT22;10349;48.666;8.948;2023-05-19T13:22:54;12.90;99.90
20380;DHT22;10349;48.666;8.948;2023-05-19T13:25:20;12.90;99.90
20380;DHT22;10349;48.666;8.948;2023-05-19T13:27:47;13.10;99.90
20380;DHT22;10349;48.666;8.948;2023-05-19T13:30:13;13.00;99.90
20380;DHT22;10349;48.666;8.948;2023-05-19T13:32:40;13.10;99.90
20380;DHT22;10349;48.666;8.948;2023-05-19T13:35:07;13.00;99.90
20380;DHT22;10349;48.666;8.948;2023-05-19T13:37:33;13.10;99.90
20380;DHT22;10349;48.666;8.948;2023-05-19T13:39:59;13.20;99.90
20380;DHT22;10349;48.666;8.948;2023-05-19T13:42:25;13.30;99.90
20380;DHT22;10349;48.666;8.948;2023-05-19T13:44:54;13.40;99.90
20380;DHT22;10349;48.666;8.948;2023-05-19T13:47:22;13.40;99.90
20380;DHT22;10349;48.666;8.948;2023-05-19T13:49:48;13.30;99.90
20380;DHT22;10349;48.666;8.948;2023-05-19T13:52:14;13.30;99.90
20380;DHT22;10349;48.666;8.948;2023-05-19T13:54:39;13.40;99.90
20380;DHT22;10349;48.666;8.948;2023-05-19T13:57:05;13.30;99.90
20380;DHT22;10349;48.666;8.948;2023-05-19T13:59:31;13.30;99.90
20380;DHT22;10349;48.666;8.948;2023-05-19T14:01:57;13.20;99.90
20380;DHT22;10349;48.666;8.948;2023-05-19T14:04:23;13.20;99.90
20380;DHT22;10349;48.666;8.948;2023-05-19T14:06:49;13.30;99.90
20380;DHT22;10349;48.666;8.948;2023-05-19T14:09:15;13.30;99.90
20380;DHT22;10349;48.666;8.948;2023-05-19T14:11:41;13.40;99.90
20380;DHT22;10349;48.666;8.948;2023-05-19T14:14:07;13.40;99.90
20380;DHT22;10349;48.666;8.948;2023-05-19T14:16:33;13.40;99.90
20380;DHT22;10349;48.666;8.948;2023-05-19T14:18:58;13.40;99.90
20380;DHT22;10349;48.666;8.948;2023-05-19T14:21:26;13.40;99.90
20380;DHT22;10349;48.666;8.948;2023-05-19T14:23:51;13.40;99.90
20380;DHT22;10349;48.666;8.948;2023-05-19T14:26:18;13.40;99.90
20380;DHT22;10349;48.666;8.948;2023-05-19T14:28:44;13.40;99.90
20380;DHT22;10349;48.666;8.948;2023-05-19T14:31:11;13.40;99.90
20380;DHT22;10349;48.666;8.948;2023-05-19T14:33:37;13.50;99.90
20380;DHT22;10349;48.666;8.948;2023-05-19T14:36:03;13.50;99.90
20380;DHT22;10349;48.666;8.948;2023-05-19T14:38:29;13.50;99.90
20380;DHT22;10349;48.666;8.948;2023-05-19T14:40:55;13.50;99.90
20380;DHT22;10349;48.666;8.948;2023-05-19T14:43:21;13.50;99.90
20380;DHT22;10349;48.666;8.948;2023-05-19T14:45:47;13.50;99.90
20380;DHT22;10349;48.666;8.948;2023-05-19T14:48:13;13.40;99.90
20380;DHT22;10349;48.666;8.948;2023-05-19T14:50:39;13.30;99.90
20380;DHT22;10349;48.666;8.948;2023-05-19T14:53:05;13.30;99.90
20380;DHT22;10349;48.666;8.948;2023-05-19T14:55:32;13.40;99.90
20380;DHT22;10349;48.666;8.948;2023-05-19T14:57:58;13.50;99.90
20380;DHT22;10349;48.666;8.948;2023-05-19T15:00:24;13.50;99.90
20380;DHT22;10349;48.666;8.948;2023-05-19T15:02:53;13.60;99.90
20380;DHT22;10349;48.666;8.948;2023-05-19T15:05:22;13.60;99.90
20380;DHT22;10349;48.666;8.948;2023-05-19T15:07:49;13.50;99.90
20380;DHT22;10349;48.666;8.948;2023-05-19T15:10:16;13.50;99.90
20380;DHT22;10349;48.666;8.948;2023-05-19T15:12:42;13.50;99.90
20380;DHT22;10349;48.666;8.948;2023-05-19T15:15:08;13.50;99.90
20380;DHT22;10349;48.666;8.948;2023-05-19T15:17:34;13.60;99.90
20380;DHT22;10349;48.666;8.948;2023-05-19T15:20:00;13.60;99.90
20380;DHT22;10349;48.666;8.948;2023-05-19T15:22:25;13.60;99.90
20380;DHT22;10349;48.666;8.948;2023-05-19T15:24:51;13.60;99.90
20380;DHT22;10349;48.666;8.948;2023-05-19T15:27:16;13.60;99.90
20380;DHT22;10349;48.666;8.948;2023-05-19T15:29:42;13.60;99.90
20380;DHT22;10349;48.666;8.948;2023-05-19T15:32:08;13.60;99.90
20380;DHT22;10349;48.666;8.948;2023-05-19T15:34:34;13.50;99.90
20380;DHT22;10349;48.666;8.948;2023-05-19T15:36:59;13.60;99.90
20380;DHT22;10349;48.666;8.948;2023-05-19T15:39:25;13.60;99.90
20380;DHT22;10349;48.666;8.948;2023-05-19T15:41:51;13.60;99.90
20380;DHT22;10349;48.666;8.948;2023-05-19T15:44:16;13.60;99.90
20380;DHT22;10349;48.666;8.948;2023-05-19T15:46:42;13.60;99.90
20380;DHT22;10349;48.666;8.948;2023-05-19T15:49:08;13.50;99.90
20380;DHT22;10349;48.666;8.948;2023-05-19T15:51:35;13.50;99.90
20380;DHT22;10349;48.666;8.948;2023-05-19T15:54:01;13.50;99.90
20380;DHT22;10349;48.666;8.948;2023-05-19T15:56:26;13.50;99.90
20380;DHT22;10349;48.666;8.948;2023-05-19T15:58:52;13.50;99.90
20380;DHT22;10349;48.666;8.948;2023-05-19T16:01:18;13.50;99.90
20380;DHT22;10349;48.666;8.948;2023-05-19T16:03:44;13.50;99.90